createdAt,value
2022-12-03T00:01:58.478Z,6.35
2022-12-03T00:04:28.503Z,7.30
2022-12-03T00:07:49.734Z,7.28
2022-12-03T00:10:16.491Z,6.15
2022-12-03T00:12:52.338Z,6.13
2022-12-03T00:15:19.160Z,6.53
2022-12-03T00:17:49.027Z,7.95
2022-12-03T00:20:21.442Z,9.98
2022-12-03T00:22:48.202Z,6.63
2022-12-03T00:25:15.098Z,8.95
2022-12-03T00:27:41.901Z,6.55
2022-12-03T00:30:15.712Z,6.70
2022-12-03T00:32:42.487Z,6.82
2022-12-03T00:35:09.573Z,7.10
2022-12-03T00:45:09.440Z,7.43
2022-12-03T00:48:13.610Z,6.47
2022-12-03T00:50:40.291Z,7.88
2022-12-03T00:53:12.241Z,6.70
2022-12-03T00:59:39.130Z,7.25
2022-12-03T01:12:03.600Z,6.80
2022-12-03T01:14:30.339Z,6.88
2022-12-03T01:16:57.027Z,5.85
2022-12-03T01:19:24.394Z,5.55
2022-12-03T01:21:52.073Z,5.88
2022-12-03T01:24:19.659Z,8.98
2022-12-03T01:26:46.642Z,6.95
2022-12-03T01:29:13.656Z,5.40
2022-12-03T01:31:58.791Z,7.32
2022-12-03T01:34:25.590Z,7.18
2022-12-03T01:36:55.027Z,5.43
2022-12-03T01:39:21.761Z,6.95
2022-12-03T01:41:50.040Z,6.03
2022-12-03T01:44:37.710Z,5.40
2022-12-03T01:47:20.313Z,7.15
2022-12-03T01:49:51.014Z,6.22
2022-12-03T01:52:20.969Z,6.75
2022-12-03T01:54:52.633Z,5.97
2022-12-03T01:57:27.302Z,6.15
2022-12-03T01:59:56.189Z,6.80
2022-12-03T02:03:10.475Z,6.18
2022-12-03T02:05:56.951Z,5.35
2022-12-03T02:08:28.481Z,6.03
2022-12-03T02:10:55.937Z,6.55
2022-12-03T02:13:22.670Z,6.20
2022-12-03T02:15:49.529Z,5.10
2022-12-03T02:25:33.499Z,6.20
2022-12-03T02:28:01.883Z,6.82
2022-12-03T02:30:30.250Z,6.10
2022-12-03T02:32:57.684Z,7.32
2022-12-03T02:35:27.210Z,4.97
2022-12-03T02:38:01.430Z,7.13
2022-12-03T02:40:35.741Z,5.93
2022-12-03T02:43:04.149Z,5.47
2022-12-03T02:45:39.367Z,6.20
2022-12-03T02:48:15.952Z,6.63
2022-12-03T02:51:26.658Z,5.82
2022-12-03T02:54:49.272Z,6.57
2022-12-03T02:57:18.568Z,5.35
2022-12-03T02:59:54.713Z,5.40
2022-12-03T03:02:21.717Z,5.80
2022-12-03T03:04:49.321Z,6.18
2022-12-03T03:07:16.398Z,6.38
2022-12-03T03:09:43.275Z,5.85
2022-12-03T03:12:10.792Z,5.18
2022-12-03T03:14:37.709Z,6.07
2022-12-03T03:17:04.582Z,5.18
2022-12-03T03:19:32.850Z,6.22
2022-12-03T03:22:00.121Z,5.93
2022-12-03T03:24:27.058Z,5.78
2022-12-03T03:26:53.909Z,5.47
2022-12-03T03:29:20.842Z,6.25
2022-12-03T03:31:47.992Z,5.45
2022-12-03T03:34:15.433Z,6.13
2022-12-03T03:36:42.810Z,5.47
2022-12-03T03:39:10.087Z,5.22
2022-12-03T03:41:37.646Z,5.35
2022-12-03T03:44:06.378Z,6.00
2022-12-03T03:46:33.885Z,6.00
2022-12-03T03:49:01.856Z,5.30
2022-12-03T03:51:28.814Z,5.65
2022-12-03T03:53:55.719Z,4.88
2022-12-03T03:56:22.603Z,5.47
2022-12-03T03:58:51.949Z,4.97
2022-12-03T04:01:25.046Z,5.05
2022-12-03T04:03:53.591Z,5.38
2022-12-03T04:06:20.340Z,5.30
2022-12-03T04:08:47.023Z,5.10
2022-12-03T04:11:32.672Z,6.18
2022-12-03T04:13:59.424Z,6.45
2022-12-03T04:16:26.121Z,5.65
2022-12-03T04:18:58.869Z,5.90
2022-12-03T04:21:44.022Z,4.63
2022-12-03T04:24:11.945Z,5.93
2022-12-03T04:30:41.642Z,5.22
2022-12-03T04:36:18.310Z,5.72
2022-12-03T04:38:44.988Z,5.05
2022-12-03T04:41:11.681Z,4.55
2022-12-03T04:43:58.541Z,6.35
2022-12-03T04:46:25.404Z,4.72
2022-12-03T04:48:53.509Z,6.13
2022-12-03T04:51:26.061Z,4.38
2022-12-03T05:00:23.065Z,5.03
2022-12-03T05:02:49.907Z,4.63
2022-12-03T05:08:41.716Z,5.40
2022-12-03T05:11:08.438Z,5.13
2022-12-03T05:13:35.278Z,4.43
2022-12-03T05:16:02.089Z,6.57
2022-12-03T05:18:28.831Z,5.72
2022-12-03T05:21:02.094Z,5.60
2022-12-03T05:23:29.037Z,5.20
2022-12-03T05:25:55.866Z,6.72
2022-12-03T05:28:24.219Z,5.57
2022-12-03T05:30:51.775Z,5.95
2022-12-03T05:33:18.848Z,5.32
2022-12-03T05:36:03.509Z,5.75
2022-12-03T05:38:30.236Z,5.35
2022-12-03T05:41:26.288Z,5.07
2022-12-03T05:43:53.263Z,5.18
2022-12-03T05:46:20.264Z,4.75
2022-12-03T05:48:47.082Z,5.05
2022-12-03T05:51:13.796Z,5.30
2022-12-03T05:53:40.529Z,4.40
2022-12-03T05:56:07.568Z,4.88
2022-12-03T05:58:34.266Z,5.07
2022-12-03T06:01:00.925Z,4.82
2022-12-03T06:03:40.173Z,5.05
2022-12-03T06:06:07.047Z,4.55
2022-12-03T06:08:33.745Z,5.15
2022-12-03T06:11:00.607Z,4.75
2022-12-03T06:14:08.242Z,5.28
2022-12-03T06:16:17.904Z,4.57
2022-12-03T06:18:44.638Z,4.80
2022-12-03T06:21:11.559Z,4.55
2022-12-03T06:27:04.563Z,4.90
2022-12-03T06:29:31.276Z,5.28
2022-12-03T06:31:58.092Z,4.10
2022-12-03T06:34:40.165Z,4.07
2022-12-03T06:37:07.049Z,4.28
2022-12-03T06:39:49.463Z,5.40
2022-12-03T06:42:16.120Z,5.45
2022-12-03T06:44:42.866Z,4.60
2022-12-03T06:47:09.564Z,5.20
2022-12-03T06:49:54.284Z,4.38
2022-12-03T06:52:20.979Z,3.50
2022-12-03T06:54:47.701Z,3.92
2022-12-03T06:57:14.445Z,5.38
2022-12-03T07:06:21.955Z,4.03
2022-12-03T07:09:07.706Z,4.80
2022-12-03T07:11:40.315Z,4.22
2022-12-03T07:14:11.023Z,5.18
2022-12-03T07:16:39.214Z,4.30
2022-12-03T07:19:07.183Z,4.28
2022-12-03T07:21:34.295Z,4.45
2022-12-03T07:24:07.451Z,4.25
2022-12-03T07:33:09.405Z,3.88
2022-12-03T07:35:39.058Z,4.10
2022-12-03T07:38:05.773Z,4.68
2022-12-03T07:40:35.109Z,4.55
2022-12-03T07:43:01.793Z,3.83
2022-12-03T07:45:28.478Z,4.15
2022-12-03T07:47:55.182Z,3.88
2022-12-03T07:50:21.963Z,4.25
2022-12-03T07:52:48.659Z,5.70
2022-12-03T07:55:15.705Z,4.45
2022-12-03T07:57:42.555Z,3.97
2022-12-03T08:02:56.792Z,3.22
2022-12-03T08:05:23.546Z,4.10
2022-12-03T08:07:50.418Z,3.53
2022-12-03T08:10:17.411Z,3.58
2022-12-03T08:12:44.312Z,3.97
2022-12-03T08:15:19.324Z,4.10
2022-12-03T08:18:00.541Z,4.25
2022-12-03T08:23:52.243Z,3.30
2022-12-03T08:26:24.746Z,3.58
2022-12-03T08:29:09.996Z,5.35
2022-12-03T08:37:19.863Z,3.10
2022-12-03T08:42:58.510Z,3.35
2022-12-03T08:46:39.144Z,4.28
2022-12-03T08:49:05.877Z,3.50
2022-12-03T08:51:32.635Z,4.72
2022-12-03T08:54:43.798Z,3.55
2022-12-03T08:57:54.077Z,3.10
2022-12-03T09:00:23.947Z,3.63
2022-12-03T09:03:10.867Z,3.50
2022-12-03T09:05:37.577Z,3.70
2022-12-03T09:08:04.324Z,3.08
2022-12-03T09:10:31.306Z,2.72
2022-12-03T09:12:58.074Z,3.85
2022-12-03T09:15:30.853Z,3.17
2022-12-03T09:21:05.662Z,4.15
2022-12-03T09:23:32.385Z,5.05
2022-12-03T09:26:01.590Z,3.30
2022-12-03T09:28:37.438Z,3.00
2022-12-03T09:31:04.200Z,3.10
2022-12-03T09:33:32.448Z,2.95
2022-12-03T09:36:32.854Z,3.40
2022-12-03T09:38:59.579Z,3.97
2022-12-03T09:41:38.952Z,3.58
2022-12-03T09:44:07.796Z,3.58
2022-12-03T09:47:29.434Z,2.80
2022-12-03T09:49:58.025Z,3.83
2022-12-03T09:52:31.609Z,2.35
2022-12-03T09:55:49.409Z,3.75
2022-12-03T09:58:39.559Z,2.30
2022-12-03T10:01:13.865Z,2.70
2022-12-03T10:04:01.648Z,2.72
2022-12-03T10:09:53.098Z,3.47
2022-12-03T10:13:06.399Z,2.75
2022-12-03T10:15:33.343Z,3.13
2022-12-03T10:18:06.257Z,3.10
2022-12-03T10:23:50.775Z,2.58
2022-12-03T10:26:35.783Z,3.00
2022-12-03T10:29:18.408Z,2.85
2022-12-03T10:31:54.130Z,2.60
2022-12-03T10:35:09.114Z,2.72
2022-12-03T10:38:24.434Z,2.88
2022-12-03T10:43:39.420Z,2.95
2022-12-03T10:54:15.695Z,3.33
2022-12-03T10:56:50.320Z,2.67
2022-12-03T10:59:20.969Z,2.60
2022-12-03T11:01:48.375Z,2.67
2022-12-03T11:16:08.376Z,2.78
2022-12-03T11:22:38.102Z,2.40
2022-12-03T11:25:32.949Z,3.13
2022-12-03T11:34:55.317Z,2.58
2022-12-03T11:41:05.066Z,2.28
2022-12-03T11:47:16.823Z,2.72
2022-12-03T11:53:54.430Z,2.60
2022-12-03T12:02:42.719Z,2.58
2022-12-03T12:06:02.999Z,2.10
2022-12-03T12:08:30.492Z,1.95
2022-12-03T12:11:41.764Z,2.15
2022-12-03T12:17:03.160Z,2.33
2022-12-03T12:20:17.041Z,2.58
2022-12-03T12:22:43.919Z,2.25
2022-12-03T12:31:22.557Z,2.05
2022-12-03T12:33:49.359Z,2.33
2022-12-03T12:36:16.160Z,2.55
2022-12-03T12:38:52.502Z,2.60
2022-12-03T12:41:19.316Z,2.75
2022-12-03T12:43:46.187Z,2.70
2022-12-03T12:46:46.222Z,2.30
2022-12-03T12:49:26.885Z,2.10
2022-12-03T12:52:14.152Z,1.95
2022-12-03T13:00:57.317Z,2.35
2022-12-03T13:05:54.248Z,2.42
2022-12-03T13:08:33.719Z,2.80
2022-12-03T13:11:01.963Z,2.65
2022-12-03T13:13:40.230Z,3.13
2022-12-03T13:22:18.493Z,3.03
2022-12-03T13:28:30.199Z,2.38
2022-12-03T13:31:12.789Z,2.83
2022-12-03T13:34:12.118Z,2.45
2022-12-03T13:36:42.851Z,2.50
2022-12-03T13:41:53.700Z,3.67
2022-12-03T13:44:33.593Z,4.72
2022-12-03T13:47:11.688Z,6.30
2022-12-03T13:50:19.291Z,3.53
2022-12-03T13:52:50.486Z,5.78
2022-12-03T13:55:21.981Z,5.65
2022-12-03T13:58:20.169Z,4.43
2022-12-03T14:03:35.075Z,15.50
2022-12-03T14:06:32.696Z,3.28
2022-12-03T14:08:59.862Z,3.35
2022-12-03T14:11:45.237Z,3.30
2022-12-03T14:14:19.782Z,3.45
2022-12-03T14:16:48.269Z,3.65
2022-12-03T14:19:15.098Z,4.22
2022-12-03T14:22:21.340Z,4.30
2022-12-03T14:24:48.076Z,4.68
2022-12-03T14:27:14.862Z,3.17
2022-12-03T14:29:54.166Z,4.28
2022-12-03T14:32:27.299Z,3.67
2022-12-03T14:34:54.180Z,2.33
2022-12-03T14:37:39.313Z,3.40
2022-12-03T14:40:08.951Z,3.97
2022-12-03T14:42:51.194Z,3.03
2022-12-03T14:45:47.221Z,6.10
2022-12-03T14:48:13.994Z,3.20
2022-12-03T14:50:40.732Z,3.22
2022-12-03T14:53:07.474Z,3.60
2022-12-03T14:55:34.230Z,3.13
2022-12-03T14:58:00.952Z,3.53
2022-12-03T15:00:27.856Z,4.05
2022-12-03T15:03:02.229Z,2.22
2022-12-03T15:05:50.639Z,4.18
2022-12-03T15:08:17.421Z,2.90
2022-12-03T15:10:44.205Z,3.45
2022-12-03T15:19:39.581Z,2.88
2022-12-03T15:22:06.558Z,3.22
2022-12-03T15:24:33.310Z,2.47
2022-12-03T15:27:00.040Z,2.50
2022-12-03T15:29:26.777Z,2.70
2022-12-03T15:35:10.767Z,2.58
2022-12-03T15:37:37.529Z,2.70
2022-12-03T15:40:05.058Z,2.97
2022-12-03T15:42:34.886Z,3.13
2022-12-03T15:45:01.714Z,3.08
2022-12-03T15:47:59.780Z,3.05
2022-12-03T15:50:39.955Z,3.75
2022-12-03T15:53:07.089Z,3.78
2022-12-03T15:55:33.849Z,5.10
2022-12-03T15:58:13.039Z,3.97
2022-12-03T16:01:19.061Z,3.33
2022-12-03T16:03:57.919Z,3.80
2022-12-03T16:09:14.622Z,3.75
2022-12-03T16:11:41.354Z,3.28
2022-12-03T16:14:08.058Z,5.47
2022-12-03T16:16:34.924Z,3.53
2022-12-03T16:19:01.645Z,3.65
2022-12-03T16:21:28.961Z,4.18
2022-12-03T16:23:56.340Z,3.80
2022-12-03T16:26:26.413Z,3.47
2022-12-03T16:31:46.099Z,3.40
2022-12-03T16:34:16.984Z,5.05
2022-12-03T16:36:45.755Z,6.90
2022-12-03T16:42:39.695Z,3.55
2022-12-03T16:45:49.048Z,4.10
2022-12-03T16:48:18.976Z,3.88
2022-12-03T16:50:45.766Z,4.53
2022-12-03T16:53:15.773Z,3.95
2022-12-03T16:58:21.150Z,3.72
2022-12-03T17:07:33.466Z,4.45
2022-12-03T17:10:52.443Z,6.80
2022-12-03T17:13:10.742Z,3.53
2022-12-03T17:15:38.262Z,3.78
2022-12-03T17:21:54.280Z,3.35
2022-12-03T17:30:21.855Z,3.90
2022-12-03T17:32:50.843Z,4.00
2022-12-03T17:47:40.928Z,4.65
2022-12-03T17:50:11.079Z,5.75
2022-12-03T17:52:42.940Z,4.40
2022-12-03T17:58:16.268Z,5.05
2022-12-03T18:01:05.971Z,4.45
2022-12-03T18:10:23.572Z,5.13
2022-12-03T18:12:50.365Z,3.50
2022-12-03T18:15:20.126Z,5.00
2022-12-03T18:24:16.450Z,5.60
2022-12-03T18:29:50.134Z,4.85
2022-12-03T18:32:28.920Z,6.82
2022-12-03T18:35:24.550Z,15.02
2022-12-03T18:40:53.298Z,12.27
2022-12-03T18:47:02.729Z,8.80
2022-12-03T18:49:29.523Z,9.20
2022-12-03T18:51:59.594Z,8.73
2022-12-03T19:04:07.886Z,8.88
2022-12-03T19:06:34.745Z,7.45
2022-12-03T19:09:02.909Z,6.15
2022-12-03T19:11:36.965Z,9.43
2022-12-03T19:14:23.084Z,9.63
2022-12-03T19:19:32.066Z,11.02
2022-12-03T19:22:05.061Z,10.30
2022-12-03T19:24:32.844Z,16.33
2022-12-03T19:26:59.579Z,11.15
2022-12-03T19:29:26.553Z,8.98
2022-12-03T19:34:39.833Z,9.50
2022-12-03T19:37:16.943Z,12.75
2022-12-03T19:43:01.830Z,8.95
2022-12-03T19:45:29.020Z,8.07
2022-12-03T19:51:07.970Z,10.07
2022-12-03T19:54:31.349Z,10.75
2022-12-03T19:57:07.517Z,10.05
2022-12-03T20:00:01.237Z,13.13
2022-12-03T20:02:28.174Z,8.80
2022-12-03T20:04:55.023Z,7.70
2022-12-03T20:07:21.786Z,9.77
2022-12-03T20:16:35.227Z,8.32
2022-12-03T20:19:10.692Z,11.15
2022-12-03T20:25:27.851Z,7.68
2022-12-03T20:28:01.421Z,8.40
2022-12-03T20:33:19.581Z,7.30
2022-12-03T20:35:52.910Z,8.35
2022-12-03T20:38:28.551Z,9.07
2022-12-03T20:41:49.796Z,9.02
2022-12-03T20:44:16.545Z,9.80
2022-12-03T20:50:19.179Z,7.60
2022-12-03T20:53:03.560Z,7.57
2022-12-03T20:55:33.564Z,9.15
2022-12-03T20:58:00.609Z,8.00
2022-12-03T21:01:15.372Z,7.88
2022-12-03T21:03:46.617Z,7.80
2022-12-03T21:06:15.126Z,9.48
2022-12-03T21:08:43.153Z,8.02
2022-12-03T21:11:15.454Z,7.40
2022-12-03T21:17:07.743Z,7.88
2022-12-03T21:37:21.806Z,5.68
2022-12-03T21:39:48.628Z,6.13
2022-12-03T21:47:12.751Z,7.45
2022-12-03T22:00:09.231Z,7.85
2022-12-03T22:06:13.621Z,8.70
2022-12-03T22:22:30.303Z,6.07
2022-12-03T22:41:15.855Z,8.75
2022-12-03T22:44:11.861Z,5.85
2022-12-03T22:46:48.095Z,5.35
2022-12-03T22:49:19.917Z,6.03
2022-12-03T22:54:28.530Z,6.20
2022-12-03T22:56:55.564Z,4.90
2022-12-03T22:59:27.255Z,5.50
2022-12-03T23:02:00.206Z,7.10
2022-12-03T23:04:30.341Z,7.57
2022-12-03T23:07:15.169Z,7.25
2022-12-03T23:09:42.062Z,6.15
2022-12-03T23:12:09.183Z,6.03
2022-12-03T23:15:39.358Z,5.38
2022-12-03T23:18:06.379Z,6.28
2022-12-03T23:23:18.297Z,5.00
2022-12-03T23:26:32.461Z,6.28
2022-12-03T23:32:49.073Z,7.10
2022-12-03T23:48:17.698Z,5.45
2022-12-03T23:51:19.381Z,5.63
2022-12-03T23:53:46.570Z,5.28
2022-12-03T23:56:16.676Z,7.82
2022-12-03T23:59:50.882Z,6.45
